Albers, Illinois
Current Conditions -  °F | °C
As of 6:58 AM on Thursday 30 Oct 2014 (Local Time) from KBLV Reporting Station
Clear Clear  
Wind Chill: 35°   Ceiling: Unl
Heat Index: 35°   Visibility: 10mi
Dew Point: 34°   Wind: 0mph
Humidity: 99%   Direction: NA
Pressure: 30.16"   Gusts: NA
Location:  38.54°N, 89.61°W
Report Text: KBLV 301158Z AUTO 00000KT 10SM CLR 01/01 A3016 RMK AO2 SLP219 T00140013 10036 20014 53003
Loading
Personal Weather Stations






























Interactive Weather Map New forecast layout! Learn more

10-Day Weather Forecast

Advertisements
Track Severe Weather on mobile